Time;durP1;ratioP1;P1;durP2;ratioP2;P2;SDS_P1;SDS_P2;PMS_P1;PMS_P2;Temp;Humidity;BMP_temperature;BMP_pressure;BME280_temperature;BME280_humidity;BME280_pressure;Samples;Min_cycle;Max_cycle;Signal;HPM_P1;HPM_P2
2023/09/13 00:00:47;;;;;;;19.17;17.33;;;23.40;91.00;;;26.06;58.34;101076.13;4930696;29;20293;-63
2023/09/13 00:03:14;;;;;;;20.57;18.67;;;23.30;91.20;;;26.04;58.22;101067.50;4936246;29;20273;-64
2023/09/13 00:05:46;;;;;;;20.53;18.43;;;23.30;91.40;;;26.03;58.62;101065.91;4935715;29;20202;-63
2023/09/13 00:08:13;;;;;;;19.80;17.90;;;23.30;91.60;;;26.01;58.88;101068.84;4935647;29;20206;-65
2023/09/13 00:10:41;;;;;;;20.20;18.20;;;23.20;91.50;;;25.99;58.80;101060.22;4935719;29;20285;-64
2023/09/13 00:13:09;;;;;;;19.47;17.47;;;23.20;91.50;;;25.99;58.61;101064.78;4935982;29;20190;-64
2023/09/13 00:15:42;;;;;;;18.53;16.60;;;23.20;91.60;;;25.96;59.29;101060.75;4934974;29;20202;-63
2023/09/13 00:18:09;;;;;;;18.87;17.07;;;23.20;91.80;;;25.98;59.45;101068.59;4929770;29;20197;-64
2023/09/13 00:20:38;;;;;;;20.30;18.30;;;23.20;91.90;;;25.98;58.84;101047.78;4935546;29;20253;-64
2023/09/13 00:23:06;;;;;;;19.37;17.57;;;23.20;91.90;;;25.96;59.13;101049.94;4938501;29;20281;-64
2023/09/13 00:25:33;;;;;;;18.93;16.97;;;23.20;91.60;;;25.90;58.43;101055.63;4939232;29;20273;-65
2023/09/13 00:28:00;;;;;;;18.07;16.37;;;23.20;91.70;;;25.86;59.14;101054.53;4939603;29;20280;-64
2023/09/13 00:30:29;;;;;;;19.93;18.03;;;23.10;91.90;;;25.85;59.36;101053.72;4939101;29;20685;-62
2023/09/13 00:32:56;;;;;;;19.37;16.70;;;23.10;92.00;;;25.85;59.86;101048.31;4939434;29;20250;-65
2023/09/13 00:35:23;;;;;;;18.27;16.67;;;23.10;92.10;;;25.88;59.37;101057.78;4939532;29;20193;-64
2023/09/13 00:37:50;;;;;;;18.73;16.93;;;23.10;92.10;;;25.88;59.13;101049.69;4929328;29;20551;-64
2023/09/13 00:40:17;;;;;;;18.93;17.23;;;23.20;92.00;;;25.89;59.48;101049.41;4919969;29;20238;-62
2023/09/13 00:42:45;;;;;;;19.83;17.93;;;23.10;91.90;;;25.91;59.45;101046.44;4920267;29;20218;-64
2023/09/13 00:45:13;;;;;;;20.53;18.50;;;23.10;91.90;;;25.92;59.47;101053.44;4930356;29;20284;-64
2023/09/13 00:47:43;;;;;;;20.30;18.40;;;23.10;91.90;;;25.90;58.97;101052.91;4939106;29;20383;-64
2023/09/13 00:50:15;;;;;;;19.63;17.83;;;23.20;91.60;;;25.84;58.39;101056.69;4939129;29;20225;-65
2023/09/13 00:52:44;;;;;;;18.20;16.57;;;23.10;91.40;;;25.77;58.36;101056.94;4939338;29;20198;-64
2023/09/13 00:55:14;;;;;;;19.07;17.27;;;23.00;91.40;;;25.71;58.48;101054.50;4938629;29;20284;-66
2023/09/13 00:57:42;;;;;;;20.27;18.30;;;23.00;91.60;;;25.68;58.92;101055.84;4938758;29;20198;-64
2023/09/13 01:00:12;;;;;;;20.80;18.77;;;22.90;91.90;;;25.67;59.49;101051.53;4932384;29;20241;-64
2023/09/13 01:02:44;;;;;;;21.13;18.27;;;22.90;92.00;;;25.67;59.77;101061.50;4934961;29;20786;-64
2023/09/13 01:05:15;;;;;;;20.57;18.60;;;22.90;92.10;;;25.68;59.36;101065.81;4938760;29;20257;-63
2023/09/13 01:07:45;;;;;;;19.37;17.40;;;22.90;92.10;;;25.67;59.59;101062.31;4938579;29;20186;-63
2023/09/13 01:10:13;;;;;;;18.57;16.77;;;22.90;92.10;;;25.67;59.25;101064.22;4938484;29;20222;-64
2023/09/13 01:12:40;;;;;;;18.67;16.73;;;22.90;92.20;;;25.70;60.04;101061.00;4938582;29;20201;-63
2023/09/13 01:15:09;;;;;;;19.47;17.57;;;22.90;92.30;;;25.73;59.87;101060.44;4938636;29;20201;-65
2023/09/13 01:17:48;;;;;;;19.73;17.93;;;22.90;92.30;;;25.73;59.96;101061.25;4937522;29;20746;-65
2023/09/13 01:20:30;;;;;;;18.43;16.73;;;22.90;92.30;;;25.76;59.38;101062.59;4919503;29;20305;-64
2023/09/13 01:23:22;;;;;;;17.97;16.37;;;23.00;92.30;;;25.73;59.47;101065.81;4919174;29;20210;-64
2023/09/13 01:26:35;;;;;;;20.87;18.87;;;23.00;92.30;;;25.72;59.36;101069.63;4927406;29;20620;-64
2023/09/13 01:29:06;;;;;;;18.23;16.50;;;23.00;92.10;;;25.79;59.82;101057.50;4934223;29;20602;-63
2023/09/13 01:31:34;;;;;;;20.27;18.27;;;23.10;92.10;;;25.83;59.07;101063.16;4938538;29;20183;-64
2023/09/13 01:34:01;;;;;;;21.57;19.60;;;23.00;92.00;;;25.81;58.74;101068.00;4937415;29;20276;-63
2023/09/13 01:36:28;;;;;;;22.33;20.07;;;23.00;91.70;;;25.74;58.57;101067.47;4938220;29;20198;-63
2023/09/13 01:38:56;;;;;;;22.47;20.20;;;23.00;91.60;;;25.64;58.67;101067.44;4930745;29;20218;-64
2023/09/13 01:41:30;;;;;;;22.50;20.33;;;22.90;91.50;;;25.54;59.17;101066.31;4920329;29;20750;-64
2023/09/13 01:43:58;;;;;;;23.30;21.10;;;22.80;91.70;;;25.47;59.23;101068.47;4937266;29;20268;-63
2023/09/13 01:46:34;;;;;;;23.00;20.90;;;22.70;91.60;;;25.36;58.81;101066.78;4937613;29;20204;-66
2023/09/13 01:49:05;;;;;;;23.43;21.13;;;22.60;91.70;;;25.29;59.42;101060.00;4937698;29;20622;-62
2023/09/13 01:51:33;;;;;;;21.20;19.20;;;22.60;91.80;;;25.21;59.01;101064.03;4937947;29;20185;-64
2023/09/13 01:54:00;;;;;;;22.63;20.47;;;22.50;92.10;;;25.19;59.31;101068.06;4937769;29;20194;-64
2023/09/13 01:56:27;;;;;;;22.90;20.70;;;22.40;92.30;;;25.19;60.07;101070.75;4937811;29;20300;-64
2023/09/13 01:58:55;;;;;;;20.40;18.50;;;22.40;92.60;;;25.17;60.03;101062.94;4937530;29;20590;-63
2023/09/13 02:01:22;;;;;;;19.90;17.90;;;22.40;92.60;;;25.17;60.01;101062.94;4937380;29;20729;-62
2023/09/13 02:03:51;;;;;;;20.53;18.53;;;22.40;92.70;;;25.17;60.57;101057.53;4937787;29;20202;-64
2023/09/13 02:06:18;;;;;;;19.47;17.57;;;22.40;92.90;;;25.21;60.70;101060.50;4937781;29;20734;-63
2023/09/13 02:08:45;;;;;;;21.00;18.97;;;22.40;93.00;;;25.25;60.71;101059.72;4926506;29;20214;-65
2023/09/13 02:11:12;;;;;;;18.60;16.77;;;22.40;93.00;;;25.32;60.37;101059.47;4918480;29;20201;-63
2023/09/13 02:13:39;;;;;;;20.40;18.40;;;22.50;93.00;;;25.37;60.96;101057.59;4918505;29;20714;-66
2023/09/13 02:16:07;;;;;;;20.37;18.43;;;22.50;92.90;;;25.42;60.21;101062.19;4932090;29;20281;-63
2023/09/13 02:18:35;;;;;;;18.13;16.33;;;22.60;92.70;;;25.46;60.36;101050.66;4937150;29;20218;-63
2023/09/13 02:21:03;;;;;;;20.70;18.67;;;22.60;92.70;;;25.50;59.95;101051.75;4937296;29;20194;-66
2023/09/13 02:23:30;;;;;;;19.17;17.40;;;22.70;92.60;;;25.52;60.31;101051.50;4937245;29;20297;-62
2023/09/13 02:25:57;;;;;;;19.50;17.70;;;22.70;92.50;;;25.54;60.24;101052.84;4932839;29;20257;-64
2023/09/13 02:28:24;;;;;;;17.93;16.33;;;22.70;92.30;;;25.53;59.82;101061.22;4936910;29;20551;-64
2023/09/13 02:30:51;;;;;;;15.77;14.27;;;22.70;92.10;;;25.49;59.32;101058.22;4918560;29;20244;-64
2023/09/13 02:33:19;;;;;;;17.20;15.60;;;22.70;92.10;;;25.47;59.98;101059.56;4927108;29;20186;-64
2023/09/13 02:35:47;;;;;;;17.93;16.23;;;22.70;92.10;;;25.42;59.55;101065.72;4937385;29;20550;-65
2023/09/13 02:38:15;;;;;;;18.37;16.63;;;22.60;92.00;;;25.33;59.54;101064.59;4935101;29;20667;-63
2023/09/13 02:40:42;;;;;;;17.80;16.20;;;22.50;92.00;;;25.23;59.24;101069.13;4917935;29;20214;-63
2023/09/13 02:43:09;;;;;;;17.93;16.23;;;22.50;92.10;;;25.14;59.89;101068.03;4924318;29;20698;-61
2023/09/13 02:45:36;;;;;;;18.57;16.77;;;22.40;92.20;;;25.06;59.48;101074.72;4932518;29;20260;-63
2023/09/13 02:48:05;;;;;;;17.60;15.90;;;22.30;92.30;;;24.99;59.76;101071.44;4936596;29;20221;-63
2023/09/13 02:50:32;;;;;;;16.43;14.73;;;22.30;92.50;;;24.92;60.45;101070.88;4936479;29;20210;-62
2023/09/13 02:52:59;;;;;;;14.83;13.33;;;22.20;92.90;;;24.90;60.61;101073.00;4936652;29;20564;-63
2023/09/13 02:55:27;;;;;;;12.90;11.60;;;22.20;93.10;;;24.87;61.21;101065.44;4936996;29;20693;-66
2023/09/13 02:57:54;;;;;;;12.53;11.27;;;22.10;93.10;;;24.79;61.72;101066.75;4937002;29;20233;-64
2023/09/13 03:00:21;;;;;;;13.27;11.97;;;22.10;93.30;;;24.76;61.66;101055.66;4936027;29;20702;-63
2023/09/13 03:02:49;;;;;;;15.17;13.77;;;22.00;93.60;;;24.73;62.90;101061.56;4936746;29;20218;-65
2023/09/13 03:05:17;;;;;;;17.47;15.50;;;22.10;94.00;;;24.72;62.92;101059.97;4936753;29;20197;-66
2023/09/13 03:07:44;;;;;;;17.90;16.10;;;22.10;93.90;;;24.71;62.62;101063.72;4936704;29;20237;-65
2023/09/13 03:10:11;;;;;;;17.23;15.57;;;22.10;93.90;;;24.66;62.20;101072.56;4936008;29;20638;-63
2023/09/13 03:12:40;;;;;;;13.43;12.03;;;22.10;93.80;;;24.63;62.29;101072.25;4936631;29;20570;-63
2023/09/13 03:15:07;;;;;;;13.27;12.07;;;22.00;93.80;;;24.59;62.18;101071.97;4936519;29;20220;-64
2023/09/13 03:17:34;;;;;;;12.77;11.57;;;22.00;93.80;;;24.57;62.67;101070.63;4936378;29;20208;-63
2023/09/13 03:20:01;;;;;;;15.60;14.03;;;22.00;94.10;;;24.60;63.16;101072.81;4936378;29;20285;-62
2023/09/13 03:22:28;;;;;;;17.23;15.53;;;22.00;94.30;;;24.64;63.66;101074.72;4936612;29;20245;-62
2023/09/13 03:24:55;;;;;;;21.77;19.60;;;22.00;94.30;;;24.65;63.53;101075.53;4933515;29;20281;-64
2023/09/13 03:27:22;;;;;;;25.17;22.67;;;22.00;94.20;;;24.66;62.76;101071.75;4936487;29;20599;-62
2023/09/13 03:29:51;;;;;;;24.77;22.37;;;22.00;94.20;;;24.66;62.65;101066.38;4936566;29;20282;-64
2023/09/13 03:32:18;;;;;;;25.97;23.27;;;22.00;94.20;;;24.63;62.65;101066.88;4935272;29;20196;-64
2023/09/13 03:34:45;;;;;;;29.17;26.20;;;22.00;94.20;;;24.61;63.27;101063.63;4917364;29;20337;-63
2023/09/13 03:37:12;;;;;;;27.17;24.40;;;21.90;94.20;;;24.62;63.13;101070.66;4917058;29;20199;-59
2023/09/13 03:39:39;;;;;;;31.40;28.10;;;21.90;94.30;;;24.61;63.15;101069.03;4929058;29;20222;-64
2023/09/13 03:42:06;;;;;;;30.93;27.70;;;21.90;94.30;;;24.60;62.85;101075.50;4936200;29;20309;-63
2023/09/13 03:44:33;;;;;;;25.53;22.80;;;21.90;94.40;;;24.59;63.74;101068.47;4936128;29;20507;-63
2023/09/13 03:47:01;;;;;;;23.17;20.80;;;21.90;94.50;;;24.61;63.27;101072.53;4936280;29;20198;-63
2023/09/13 03:49:28;;;;;;;19.17;17.20;;;21.90;94.50;;;24.61;63.66;101074.41;4936035;29;20234;-64
2023/09/13 03:51:55;;;;;;;16.17;14.00;;;21.90;94.50;;;24.61;63.59;101074.41;4936345;29;20257;-63
2023/09/13 03:54:24;;;;;;;12.73;11.43;;;21.90;94.40;;;24.62;63.31;101076.03;4936164;29;20198;-64
2023/09/13 03:56:51;;;;;;;10.80;9.70;;;21.90;94.30;;;24.64;62.97;101085.50;4937597;29;20193;-64
2023/09/13 03:59:18;;;;;;;8.87;7.97;;;21.90;94.20;;;24.68;62.46;101085.75;4939650;29;20209;-63
2023/09/13 04:01:45;;;;;;;10.60;9.60;;;21.90;94.00;;;24.69;62.46;101082.00;4939777;29;20313;-64
2023/09/13 04:04:13;;;;;;;9.27;8.23;;;21.90;93.90;;;24.69;62.14;101076.63;4940152;29;20634;-64
2023/09/13 04:06:41;;;;;;;7.33;6.27;;;22.00;93.90;;;24.70;61.96;101083.63;4939307;29;20217;-64
2023/09/13 04:09:09;;;;;;;9.10;7.33;;;22.00;93.70;;;24.69;62.43;101079.31;4939586;29;20209;-64
2023/09/13 04:11:36;;;;;;;8.37;7.57;;;22.00;93.60;;;24.71;61.90;101080.69;4939846;29;20714;-64
2023/09/13 04:14:06;;;;;;;6.27;5.67;;;22.00;93.70;;;24.73;61.93;101083.09;4939714;29;20273;-64
2023/09/13 04:16:33;;;;;;;5.80;5.30;;;22.00;93.60;;;24.72;61.33;101078.81;4939601;29;20277;-66
2023/09/13 04:19:00;;;;;;;7.43;5.37;;;22.00;93.30;;;24.70;61.08;101083.63;4939340;29;20221;-64
2023/09/13 04:21:29;;;;;;;5.50;4.57;;;22.00;93.20;;;24.69;60.77;101090.09;4938521;29;20293;-64
2023/09/13 04:23:58;;;;;;;4.97;4.20;;;21.90;93.00;;;24.65;61.47;101086.31;4939483;29;20235;-65
2023/09/13 04:26:25;;;;;;;4.93;4.43;;;21.90;92.90;;;24.62;61.29;101086.81;4929023;29;20258;-64
2023/09/13 04:28:52;;;;;;;5.37;4.40;;;21.90;93.00;;;24.61;61.30;101080.59;4920191;29;20293;-65
2023/09/13 04:31:20;;;;;;;4.83;4.03;;;21.80;93.20;;;24.63;60.88;101074.94;4920070;29;20198;-64
2023/09/13 04:33:50;;;;;;;5.10;3.97;;;21.80;93.10;;;24.64;60.71;101077.41;4933109;29;20194;-64
2023/09/13 04:36:17;;;;;;;4.27;3.40;;;21.80;93.00;;;24.63;61.08;101083.84;4937868;29;20209;-64
2023/09/13 04:38:47;;;;;;;3.37;3.03;;;21.80;92.80;;;24.61;60.20;101083.31;4938288;29;20300;-65
2023/09/13 04:41:16;;;;;;;3.83;3.20;;;21.80;92.80;;;24.58;60.29;101086.50;4939007;29;20209;-64
2023/09/13 04:43:43;;;;;;;3.57;3.27;;;21.80;92.70;;;24.54;60.48;101090.78;4939451;29;20260;-64
2023/09/13 04:46:11;;;;;;;2.90;2.60;;;21.70;92.70;;;24.52;60.39;101102.88;4938817;29;20777;-65
2023/09/13 04:48:38;;;;;;;2.80;2.60;;;21.70;92.80;;;24.49;60.10;101098.81;4938454;29;20221;-64
2023/09/13 04:51:05;;;;;;;3.67;3.13;;;21.70;92.80;;;24.49;60.83;101100.69;4939211;29;20668;-64
2023/09/13 04:53:33;;;;;;;3.00;2.70;;;21.70;93.00;;;24.50;60.21;101108.53;4938530;29;20249;-66
2023/09/13 04:56:02;;;;;;;3.10;2.83;;;21.70;92.80;;;24.49;60.00;101114.97;4938442;29;20284;-63
2023/09/13 04:58:29;;;;;;;3.43;3.10;;;21.60;92.60;;;24.45;60.68;101118.44;4938484;29;20631;-65
2023/09/13 05:01:00;;;;;;;5.60;3.23;;;21.60;92.60;;;24.45;60.96;101129.22;4936926;29;20284;-67
2023/09/13 05:03:27;;;;;;;3.07;2.77;;;21.60;92.80;;;24.45;60.91;101129.22;4937259;29;20619;-66
2023/09/13 05:05:55;;;;;;;3.50;3.20;;;21.60;92.70;;;24.43;59.56;101129.47;4937519;29;20271;-65
2023/09/13 05:08:22;;;;;;;4.27;3.37;;;21.60;92.20;;;24.36;59.23;101145.03;4936875;29;20638;-64
2023/09/13 05:10:51;;;;;;;4.77;4.37;;;21.50;92.00;;;24.30;59.13;101142.50;4937215;29;20366;-65
2023/09/13 05:13:19;;;;;;;5.57;5.07;;;21.50;92.10;;;24.21;58.93;101142.19;4937399;29;20617;-65
2023/09/13 05:15:47;;;;;;;4.83;4.43;;;21.40;91.60;;;24.11;59.01;101145.56;4936910;29;20194;-64
2023/09/13 05:18:14;;;;;;;4.23;3.87;;;21.30;91.90;;;24.06;59.44;101141.97;4924471;29;20229;-64
2023/09/13 05:20:41;;;;;;;5.87;4.47;;;21.20;92.20;;;24.04;59.91;101144.94;4936665;29;20224;-65
2023/09/13 05:23:08;;;;;;;5.23;4.73;;;21.20;92.10;;;24.00;59.93;101153.78;4937004;29;20213;-64
2023/09/13 05:25:42;;;;;;;5.13;3.87;;;21.20;92.20;;;23.94;60.13;101144.81;4928803;29;20667;-63
2023/09/13 05:28:09;;;;;;;5.97;3.97;;;21.10;92.60;;;23.95;60.09;101146.47;4918380;29;20191;-65
2023/09/13 05:30:38;;;;;;;6.63;4.40;;;21.20;92.70;;;24.01;60.65;101147.34;4924573;29;20319;-67
2023/09/13 05:33:05;;;;;;;8.70;6.73;;;21.20;92.80;;;24.04;60.18;101144.94;4929760;29;20218;-64
2023/09/13 05:35:32;;;;;;;7.40;5.53;;;21.20;92.00;;;24.04;59.99;101149.50;4917663;29;20221;-65
2023/09/13 05:37:59;;;;;;;8.23;5.40;;;21.30;92.10;;;24.05;59.33;101157.34;4917542;29;20190;-66
2023/09/13 05:40:28;;;;;;;8.30;4.70;;;21.20;91.90;;;24.04;59.70;101155.69;4936672;29;20229;-64
2023/09/13 05:42:55;;;;;;;5.43;4.20;;;21.20;91.80;;;24.05;59.55;101159.22;4936707;29;20210;-63
2023/09/13 05:45:23;;;;;;;7.93;4.57;;;21.30;92.10;;;24.08;59.81;101164.13;4935336;29;20599;-65
2023/09/13 05:47:52;;;;;;;8.77;4.70;;;21.20;91.90;;;24.09;59.02;101157.66;4936475;29;20194;-63
2023/09/13 05:50:19;;;;;;;11.03;4.87;;;21.30;91.80;;;24.04;59.25;101166.47;4936173;29;20591;-65
2023/09/13 05:52:46;;;;;;;11.60;5.90;;;21.20;91.80;;;24.03;58.91;101151.38;4936742;29;20273;-64
2023/09/13 05:55:13;;;;;;;8.07;5.03;;;21.30;91.90;;;24.01;59.47;101156.19;4936432;29;20198;-64
2023/09/13 05:57:40;;;;;;;9.73;4.47;;;21.30;91.80;;;24.00;59.36;101159.97;4936168;29;20204;-64
2023/09/13 06:00:09;;;;;;;8.80;6.03;;;21.30;91.70;;;23.99;59.10;101157.50;4894453;29;1054695;-65
2023/09/13 06:02:37;;;;;;;9.13;5.00;;;21.30;91.60;;;24.00;59.11;101157.28;4917898;29;20218;-64
2023/09/13 06:05:09;;;;;;;13.60;4.60;;;21.30;91.80;;;24.05;59.49;101167.28;4917947;29;20191;-64
2023/09/13 06:07:36;;;;;;;7.83;5.27;;;21.40;91.50;;;24.08;58.25;101172.97;4919733;29;20232;-65
2023/09/13 06:10:04;;;;;;;6.53;5.23;;;21.30;91.00;;;24.06;58.36;101180.50;4936440;29;20256;-63
2023/09/13 06:12:32;;;;;;;7.23;5.00;;;21.30;90.80;;;24.00;57.96;101175.28;4936787;29;20194;-65
2023/09/13 06:14:59;;;;;;;8.83;5.60;;;21.20;90.90;;;23.96;58.14;101179.56;4931164;29;20198;-64
2023/09/13 06:17:26;;;;;;;6.37;4.80;;;21.20;91.20;;;23.97;58.66;101186.53;4931994;29;20293;-65
2023/09/13 06:19:53;;;;;;;9.23;6.70;;;21.20;91.50;;;24.00;58.58;101186.88;4932584;29;20214;-65
2023/09/13 06:22:22;;;;;;;8.63;5.20;;;21.20;91.50;;;24.06;58.66;101193.09;4932761;29;20521;-64
2023/09/13 06:24:52;;;;;;;6.70;5.23;;;21.20;91.60;;;24.10;58.58;101197.75;4932098;29;20316;-65
2023/09/13 06:27:19;;;;;;;6.10;4.70;;;21.20;91.30;;;24.11;57.99;101198.56;4936091;29;20206;-65
2023/09/13 06:29:46;;;;;;;5.07;4.40;;;21.20;91.00;;;24.09;58.03;101196.13;4935378;29;20313;-64
2023/09/13 06:32:13;;;;;;;6.13;5.17;;;21.20;90.90;;;24.06;58.34;101202.00;4935475;29;20245;-64
2023/09/13 06:35:01;;;;;;;6.70;5.33;;;21.20;91.10;;;24.03;58.35;101217.84;4931794;29;20201;-65
2023/09/13 06:37:30;;;;;;;5.30;4.43;;;21.20;91.00;;;24.02;58.09;101227.78;4931402;29;20226;-64
2023/09/13 06:40:00;;;;;;;4.93;3.50;;;21.20;91.00;;;23.98;57.21;101233.91;4934658;29;20221;-64
2023/09/13 06:42:27;;;;;;;3.87;3.23;;;21.10;90.10;;;23.89;56.47;101238.09;4924248;29;20620;-64
2023/09/13 06:44:56;;;;;;;4.83;3.60;;;21.00;89.70;;;23.76;56.04;101233.91;4927830;29;20620;-64
2023/09/13 06:47:43;;;;;;;4.20;2.90;;;20.90;88.80;;;23.57;55.64;101240.63;4919035;29;20210;-63
2023/09/13 06:50:10;;;;;;;3.30;2.70;;;20.70;89.10;;;23.46;55.82;101244.25;4917913;29;20226;-64
2023/09/13 06:52:41;;;;;;;4.37;3.00;;;20.60;88.50;;;23.34;55.39;101248.88;4921610;29;20194;-64
2023/09/13 06:55:31;;;;;;;6.40;3.73;;;20.50;88.20;;;23.21;55.63;101258.06;4922978;29;20675;-66
2023/09/13 06:58:07;;;;;;;7.23;3.80;;;20.30;88.70;;;23.13;55.63;101265.72;4933107;29;20210;-64
2023/09/13 07:00:41;;;;;;;3.93;3.10;;;20.30;88.80;;;23.04;56.11;101267.16;4925169;29;20317;-64
2023/09/13 07:03:29;;;;;;;5.33;2.73;;;20.20;89.00;;;22.97;55.35;101266.50;4923172;29;20210;-65
2023/09/13 07:06:00;;;;;;;4.53;3.13;;;20.10;87.80;;;22.89;55.98;101279.28;4921388;29;20292;-65
2023/09/13 07:08:29;;;;;;;6.50;4.77;;;20.00;88.60;;;22.84;55.62;101281.09;4930051;29;20694;-65
2023/09/13 07:10:56;;;;;;;5.60;3.70;;;19.90;88.40;;;22.78;55.78;101279.34;4933631;29;20208;-66
2023/09/13 07:13:25;;;;;;;6.03;3.50;;;19.90;88.40;;;22.76;56.07;101293.03;4929954;29;20222;-64
2023/09/13 07:15:52;;;;;;;6.40;3.03;;;19.90;88.80;;;22.74;55.68;101286.25;4931228;29;20263;-64
2023/09/13 07:18:19;;;;;;;5.17;3.00;;;19.80;88.60;;;22.71;55.85;101287.56;4931454;29;20202;-63
2023/09/13 07:20:46;;;;;;;5.30;2.77;;;19.80;88.40;;;22.64;55.67;101300.31;4935384;29;20665;-64
2023/09/13 07:23:13;;;;;;;6.47;2.90;;;19.70;88.20;;;22.60;55.87;101304.50;4934011;29;20293;-63
2023/09/13 07:25:42;;;;;;;3.93;2.80;;;19.70;89.20;;;22.58;55.89;101301.22;4928361;29;20281;-65
2023/09/13 07:28:09;;;;;;;4.47;2.63;;;19.70;88.50;;;22.56;55.89;101308.69;4928090;29;20213;-65
2023/09/13 07:30:38;;;;;;;5.63;2.73;;;19.70;88.70;;;22.58;56.01;101306.59;4933116;29;20222;-65
2023/09/13 07:33:05;;;;;;;8.27;3.50;;;19.70;89.10;;;22.59;56.33;101315.47;4921979;29;21805;-65
2023/09/13 07:35:35;;;;;;;6.40;3.27;;;19.70;88.90;;;22.63;56.41;101322.81;4920026;29;20222;-66
2023/09/13 07:38:05;;;;;;;6.93;3.47;;;19.70;89.80;;;22.68;56.13;101317.56;4909453;29;20209;-65
2023/09/13 07:40:33;;;;;;;7.47;3.33;;;19.80;89.30;;;22.70;55.75;101320.03;4919025;29;20261;-65
2023/09/13 07:43:02;;;;;;;7.10;2.95;;;19.80;88.20;;;22.70;55.31;101322.72;4920786;29;20202;-66
2023/09/13 07:45:33;;;;;;;10.17;3.73;;;19.80;87.60;;;22.71;55.22;101327.81;4932916;29;20190;-63
2023/09/13 07:48:02;;;;;;;6.47;2.90;;;19.80;87.00;;;22.74;55.11;101339.97;4929224;29;20664;-63
2023/09/13 07:50:32;;;;;;;13.00;4.33;;;19.80;87.80;;;22.78;54.75;101343.78;4932917;29;20234;-65
2023/09/13 07:52:59;;;;;;;6.73;3.30;;;19.90;87.00;;;22.80;54.62;101344.34;4929354;29;20237;-64
2023/09/13 07:55:45;;;;;;;6.23;2.63;;;19.90;87.20;;;22.80;55.25;101342.50;4933224;29;20257;-67
2023/09/13 07:58:17;;;;;;;8.17;3.37;;;19.90;88.40;;;22.88;54.69;101350.16;4932694;29;20648;-65
2023/09/13 08:00:45;;;;;;;8.80;3.07;;;20.00;87.20;;;22.88;54.37;101366.28;4932945;29;20257;-65
2023/09/13 08:03:17;;;;;;;8.63;4.10;;;20.00;85.50;;;22.83;53.79;101371.56;4928853;29;20261;-66
2023/09/13 08:05:47;;;;;;;6.27;3.00;;;19.90;85.50;;;22.82;54.50;101367.22;4933610;29;20655;-65
2023/09/13 08:08:45;;;;;;;5.77;2.53;;;19.90;86.80;;;22.78;54.37;101373.31;4925362;29;20226;-67
2023/09/13 08:11:52;;;;;;;3.83;2.33;;;19.90;86.20;;;22.76;54.41;101373.56;4902560;29;20214;-67
2023/09/13 08:14:22;;;;;;;8.37;2.20;;;19.90;86.20;;;22.80;54.21;101380.06;4923029;29;20598;-65
2023/09/13 08:16:49;;;;;;;5.20;2.40;;;19.90;86.60;;;22.83;54.29;101374.25;4934961;29;20221;-65
2023/09/13 08:19:16;;;;;;;5.37;2.43;;;19.90;86.20;;;22.89;54.05;101372.47;4929888;29;20245;-61
2023/09/13 08:21:44;;;;;;;5.07;2.90;;;19.90;86.00;;;22.94;53.71;101366.38;4930542;29;20229;-66
2023/09/13 08:24:11;;;;;;;5.23;2.80;;;20.00;85.20;;;22.96;52.72;101375.81;4923808;29;20625;-65
2023/09/13 08:26:40;;;;;;;3.17;2.10;;;20.00;83.70;;;22.95;52.49;101389.47;4935040;29;20216;-64
2023/09/13 08:29:16;;;;;;;4.40;2.50;;;20.00;83.90;;;22.96;52.26;101393.81;4932263;29;20727;-65
2023/09/13 08:31:56;;;;;;;6.83;5.13;;;20.00;83.50;;;22.94;52.22;101401.28;4915740;29;20218;-70
2023/09/13 08:34:27;;;;;;;4.77;3.00;;;20.00;83.10;;;22.95;51.99;101405.59;4920112;29;20206;-65
2023/09/13 08:36:57;;;;;;;3.90;2.40;;;20.00;83.20;;;22.95;51.79;101406.41;4924629;29;20213;-67
2023/09/13 08:39:26;;;;;;;6.77;2.60;;;20.00;83.00;;;22.96;51.85;101421.47;4932486;29;20579;-65
2023/09/13 08:41:56;;;;;;;4.97;2.30;;;20.00;82.80;;;22.98;51.91;101419.38;4929173;29;20304;-67
2023/09/13 08:44:44;;;;;;;4.87;2.23;;;20.00;83.00;;;22.98;52.07;101429.28;4930964;29;20328;-66
2023/09/13 08:47:29;;;;;;;7.07;2.67;;;20.10;82.80;;;23.01;51.23;101439.56;4933095;29;20202;-66
2023/09/13 08:50:24;;;;;;;5.23;2.23;;;20.10;81.80;;;23.04;51.56;101444.44;4930292;29;20281;-65
2023/09/13 08:52:54;;;;;;;4.80;2.10;;;20.10;81.80;;;23.01;50.96;101455.69;4947243;29;20694;-63
2023/09/13 08:55:22;;;;;;;5.93;2.40;;;20.10;81.40;;;22.99;50.90;101455.09;4919595;29;20658;-64
2023/09/13 08:57:51;;;;;;;5.10;2.80;;;20.00;81.50;;;22.94;51.05;101460.38;4929110;29;20220;-64
2023/09/13 09:00:18;;;;;;;5.67;2.90;;;20.00;81.50;;;22.91;51.38;101456.28;4920623;29;20300;-64
2023/09/13 09:02:49;;;;;;;5.70;2.80;;;20.00;82.70;;;22.94;51.45;101460.38;4930252;29;20273;-64
2023/09/13 09:05:17;;;;;;;4.70;1.93;;;19.90;82.30;;;22.92;50.91;101464.09;4935474;29;20570;-63
2023/09/13 09:07:47;;;;;;;6.63;2.80;;;19.90;81.70;;;22.88;51.29;101473.69;4927651;29;20206;-65
2023/09/13 09:10:15;;;;;;;5.77;2.80;;;19.80;82.20;;;22.87;51.54;101484.66;4933994;29;20218;-64
2023/09/13 09:12:47;;;;;;;6.37;2.80;;;19.90;82.70;;;22.84;51.78;101488.63;4936588;29;20198;-62
2023/09/13 09:15:17;;;;;;;4.27;2.50;;;19.90;82.90;;;22.84;51.93;101488.63;4932483;29;20294;-64
2023/09/13 09:17:51;;;;;;;5.43;2.17;;;19.90;83.50;;;22.85;52.23;101484.91;4932121;29;20267;-64
2023/09/13 09:20:19;;;;;;;7.47;3.20;;;19.80;83.70;;;22.90;52.24;101490.38;4928465;29;20237;-64
2023/09/13 09:22:46;;;;;;;9.97;7.53;;;19.90;84.00;;;22.95;52.53;101486.97;4932795;29;20202;-66
2023/09/13 09:25:14;;;;;;;6.60;4.47;;;19.90;84.00;;;22.98;52.42;101489.19;4929123;29;20217;-64
2023/09/13 09:27:42;;;;;;;5.37;3.07;;;20.00;84.50;;;23.08;52.50;101488.59;4932251;29;20209;-64
2023/09/13 09:30:14;;;;;;;6.23;3.80;;;20.10;84.30;;;23.16;52.49;101489.00;4936034;29;20635;-64
2023/09/13 09:32:44;;;;;;;9.43;4.60;;;20.10;84.50;;;23.24;52.00;101490.50;4932718;29;20195;-64
2023/09/13 09:35:14;;;;;;;7.73;3.07;;;20.20;83.20;;;23.30;51.87;101487.69;4932942;29;20202;-64
2023/09/13 09:37:42;;;;;;;6.17;2.80;;;20.30;83.00;;;23.36;51.35;101491.31;4933601;29;20205;-64
2023/09/13 09:40:14;;;;;;;5.40;3.00;;;20.30;82.70;;;23.41;51.40;101484.19;4934565;29;20375;-64
2023/09/13 09:42:41;;;;;;;7.73;3.10;;;20.40;82.50;;;23.44;51.00;101488.22;4930910;29;20607;-64
2023/09/13 09:45:09;;;;;;;3.80;2.23;;;20.50;81.80;;;23.48;50.45;101489.41;4930111;29;20234;-65
2023/09/13 09:47:41;;;;;;;6.73;2.27;;;20.50;81.10;;;23.48;50.21;101489.41;4936518;29;20198;-64
2023/09/13 09:50:15;;;;;;;4.00;2.23;;;20.50;79.80;;;23.48;49.54;101492.09;4926993;29;20308;-65
2023/09/13 09:52:48;;;;;;;6.00;3.87;;;20.50;79.00;;;23.41;48.98;101499.47;4936467;29;20196;-63
2023/09/13 09:55:18;;;;;;;7.63;4.50;;;20.40;78.30;;;23.38;49.36;101499.94;4929117;29;20206;-63
2023/09/13 09:57:46;;;;;;;7.07;4.73;;;20.40;79.00;;;23.37;49.18;101492.94;4936712;29;20277;-64
2023/09/13 10:00:15;;;;;;;8.30;3.40;;;20.40;78.70;;;23.36;48.60;101486.75;4933088;29;20246;-64
2023/09/13 10:02:44;;;;;;;6.30;3.33;;;20.40;77.90;;;23.38;48.51;101478.44;4932922;29;20237;-64
2023/09/13 10:05:16;;;;;;;3.63;2.30;;;20.40;77.50;;;23.41;48.96;101477.97;4931718;29;20233;-64
2023/09/13 10:07:52;;;;;;;4.57;1.97;;;20.40;78.80;;;23.44;49.49;101493.59;4932747;29;20204;-65
2023/09/13 10:10:33;;;;;;;7.87;3.17;;;20.40;79.30;;;23.49;49.65;101501.75;4931991;29;20256;-63
2023/09/13 10:13:00;;;;;;;6.53;2.73;;;20.50;79.40;;;23.54;48.75;101509.91;4932180;29;20205;-64
2023/09/13 10:15:28;;;;;;;4.60;2.60;;;20.50;78.10;;;23.55;48.84;101511.56;4922082;29;20201;-64
2023/09/13 10:17:59;;;;;;;4.13;2.13;;;20.60;78.50;;;23.56;48.74;101513.19;4928648;29;20247;-64